createdAt,value
2022-08-26T00:01:44.224Z,100591.75
2022-08-26T00:04:13.044Z,100587.09
2022-08-26T00:06:42.501Z,100591.97
2022-08-26T00:09:40.382Z,100588.94
2022-08-26T00:12:12.153Z,100589.91
2022-08-26T00:15:07.398Z,100598.03
2022-08-26T00:17:35.360Z,100590.91
2022-08-26T00:20:06.925Z,100585.19
2022-08-26T00:22:34.769Z,100588.72
2022-08-26T00:25:04.207Z,100581.72
2022-08-26T00:27:35.701Z,100588.75
2022-08-26T00:30:28.630Z,100591.34
2022-08-26T00:32:57.825Z,100588.25
2022-08-26T00:35:27.976Z,100590.88
2022-08-26T00:37:56.854Z,100585.75
2022-08-26T00:40:36.319Z,100584.72
2022-08-26T00:43:09.301Z,100584.72
2022-08-26T00:45:45.883Z,100587.13
2022-08-26T00:48:18.703Z,100588.97
2022-08-26T00:50:54.922Z,100588.75
2022-08-26T00:53:28.315Z,100586.28
2022-08-26T00:56:08.789Z,100588.75
2022-08-26T00:58:39.394Z,100587.94
2022-08-26T01:01:11.665Z,100594.09
2022-08-26T01:03:42.408Z,100585.66
2022-08-26T01:06:12.962Z,100588.63
2022-08-26T01:08:41.681Z,100595.91
2022-08-26T01:11:35.171Z,100591.88
2022-08-26T01:14:06.702Z,100591.34
2022-08-26T01:16:37.127Z,100592.66
2022-08-26T01:19:27.154Z,100585.03
2022-08-26T01:22:10.332Z,100591.75
2022-08-26T01:24:41.897Z,100592.00
2022-08-26T01:27:13.686Z,100587.09
2022-08-26T01:29:44.521Z,100589.25
2022-08-26T01:32:16.353Z,100583.25
2022-08-26T01:34:47.280Z,100581.84
2022-08-26T01:37:27.725Z,100589.41
2022-08-26T01:39:56.883Z,100583.38
2022-08-26T01:42:26.149Z,100588.69
2022-08-26T01:44:57.761Z,100582.69
2022-08-26T01:47:28.075Z,100581.56
2022-08-26T01:50:02.933Z,100587.81
2022-08-26T01:52:34.123Z,100591.31
2022-08-26T01:55:05.465Z,100589.97
2022-08-26T01:57:36.345Z,100588.56
2022-08-26T02:00:08.318Z,100590.44
2022-08-26T02:02:45.575Z,100582.31
2022-08-26T02:05:17.633Z,100586.09
2022-08-26T02:07:46.608Z,100586.59
2022-08-26T02:10:15.418Z,100584.97
2022-08-26T02:12:44.483Z,100591.69
2022-08-26T02:15:13.143Z,100588.41
2022-08-26T02:17:47.423Z,100586.28
2022-08-26T02:20:19.773Z,100596.50
2022-08-26T02:22:48.991Z,100588.66
2022-08-26T02:26:02.267Z,100584.53
2022-08-26T02:28:39.193Z,100581.50
2022-08-26T02:31:34.014Z,100583.84
2022-08-26T02:34:10.775Z,100586.25
2022-08-26T02:36:38.924Z,100578.41
2022-08-26T02:39:08.467Z,100577.81
2022-08-26T02:41:44.073Z,100575.81
2022-08-26T02:44:38.171Z,100577.72
2022-08-26T02:47:08.540Z,100572.00
2022-08-26T02:49:37.993Z,100579.53
2022-08-26T02:52:07.194Z,100576.75
2022-08-26T02:54:35.198Z,100580.19
2022-08-26T02:57:03.925Z,100585.00
2022-08-26T02:59:36.197Z,100581.97
2022-08-26T03:02:04.065Z,100578.69
2022-08-26T03:04:32.588Z,100579.78
2022-08-26T03:07:01.297Z,100577.31
2022-08-26T03:09:29.111Z,100575.97
2022-08-26T03:11:58.062Z,100577.66
2022-08-26T03:14:26.534Z,100575.75
2022-08-26T03:16:55.007Z,100578.13
2022-08-26T03:19:24.909Z,100573.22
2022-08-26T03:21:58.059Z,100572.53
2022-08-26T03:24:26.592Z,100571.63
2022-08-26T03:26:54.372Z,100579.91
2022-08-26T03:29:42.042Z,100575.78
2022-08-26T03:32:09.877Z,100573.34
2022-08-26T03:34:38.698Z,100572.53
2022-08-26T03:37:06.817Z,100573.84
2022-08-26T03:39:35.181Z,100582.19
2022-08-26T03:42:03.176Z,100574.31
2022-08-26T03:44:31.718Z,100565.16
2022-08-26T03:47:00.932Z,100568.09
2022-08-26T03:49:31.457Z,100573.50
2022-08-26T03:51:59.938Z,100573.50
2022-08-26T03:54:27.571Z,100570.81
2022-08-26T03:56:55.416Z,100568.91
2022-08-26T03:59:24.724Z,100574.56
2022-08-26T04:01:52.698Z,100569.41
2022-08-26T04:04:22.702Z,100567.50
2022-08-26T04:06:59.539Z,100565.63
2022-08-26T04:09:27.823Z,100565.41
2022-08-26T04:11:57.578Z,100568.66
2022-08-26T04:14:27.517Z,100565.16
2022-08-26T04:17:24.982Z,100562.44
2022-08-26T04:19:53.948Z,100567.88
2022-08-26T04:22:24.417Z,100572.34
2022-08-26T04:24:52.940Z,100563.81
2022-08-26T04:27:21.003Z,100566.19
2022-08-26T04:29:55.286Z,100570.13
2022-08-26T04:32:23.645Z,100570.91
2022-08-26T04:34:51.312Z,100575.72
2022-08-26T04:37:18.973Z,100574.00
2022-08-26T04:39:51.426Z,100565.25
2022-08-26T04:42:25.851Z,100570.50
2022-08-26T04:44:53.996Z,100566.06
2022-08-26T04:47:21.655Z,100564.88
2022-08-26T04:49:49.449Z,100571.75
2022-08-26T04:52:18.067Z,100564.88
2022-08-26T04:54:46.049Z,100571.19
2022-08-26T04:57:13.904Z,100577.13
2022-08-26T04:59:41.827Z,100577.25
2022-08-26T05:02:09.549Z,100579.22
2022-08-26T05:04:37.483Z,100583.31
2022-08-26T05:07:06.370Z,100582.56
2022-08-26T05:09:34.346Z,100577.78
2022-08-26T05:12:02.026Z,100578.69
2022-08-26T05:14:31.266Z,100575.75
2022-08-26T05:17:05.311Z,100574.97
2022-08-26T05:19:33.241Z,100570.13
2022-08-26T05:22:26.628Z,100575.94
2022-08-26T05:24:54.546Z,100583.56
2022-08-26T05:27:22.191Z,100580.44
2022-08-26T05:29:54.510Z,100576.22
2022-08-26T05:32:22.454Z,100577.91
2022-08-26T05:34:55.561Z,100577.06
2022-08-26T05:37:24.974Z,100588.88
2022-08-26T05:39:56.013Z,100584.72
2022-08-26T05:42:23.948Z,100591.91
2022-08-26T05:44:55.733Z,100593.69
2022-08-26T05:47:24.827Z,100593.03
2022-08-26T05:49:53.043Z,100594.25
2022-08-26T05:52:21.016Z,100594.06
2022-08-26T05:54:52.593Z,100590.09
2022-08-26T05:57:23.206Z,100592.66
2022-08-26T05:59:52.025Z,100589.78
2022-08-26T06:02:20.300Z,100587.97
2022-08-26T06:05:13.853Z,100587.53
2022-08-26T06:08:03.280Z,100591.09
2022-08-26T06:10:33.147Z,100587.31
2022-08-26T06:13:09.241Z,100583.59
2022-08-26T06:15:45.993Z,100584.16
2022-08-26T06:18:16.002Z,100587.16
2022-08-26T06:20:54.596Z,100589.59
2022-08-26T06:23:49.067Z,100589.34
2022-08-26T06:26:17.401Z,100592.34
2022-08-26T06:28:45.873Z,100593.72
2022-08-26T06:31:17.133Z,100590.47
2022-08-26T06:33:45.289Z,100586.91
2022-08-26T06:36:27.594Z,100595.38
2022-08-26T06:38:56.968Z,100592.09
2022-08-26T06:41:26.014Z,100589.63
2022-08-26T06:43:53.954Z,100599.72
2022-08-26T06:46:22.148Z,100593.72
2022-08-26T06:48:50.327Z,100599.44
2022-08-26T06:51:24.865Z,100600.25
2022-08-26T06:53:54.247Z,100599.13
2022-08-26T06:56:24.683Z,100606.25
2022-08-26T06:58:52.761Z,100600.78
2022-08-26T07:01:32.326Z,100604.31
2022-08-26T07:04:03.948Z,100596.94
2022-08-26T07:06:40.707Z,100602.13
2022-08-26T07:09:10.168Z,100602.38
2022-08-26T07:11:39.443Z,100604.22
2022-08-26T07:14:08.155Z,100592.75
2022-08-26T07:16:36.459Z,100593.81
2022-08-26T07:19:10.890Z,100592.75
2022-08-26T07:21:41.713Z,100592.66
2022-08-26T07:24:11.174Z,100589.59
2022-08-26T07:26:43.137Z,100596.97
2022-08-26T07:29:12.660Z,100590.63
2022-08-26T07:31:42.784Z,100593.50
2022-08-26T07:34:13.734Z,100591.22
2022-08-26T07:36:42.068Z,100601.22
2022-08-26T07:39:09.846Z,100590.84
2022-08-26T07:41:37.631Z,100589.97
2022-08-26T07:44:06.089Z,100598.63
2022-08-26T07:46:36.391Z,100585.09
2022-08-26T07:49:04.469Z,100591.50
2022-08-26T07:51:32.789Z,100590.22
2022-08-26T07:54:00.583Z,100581.22
2022-08-26T07:56:29.653Z,100588.59
2022-08-26T07:58:57.522Z,100579.09
2022-08-26T08:01:27.046Z,100583.56
2022-08-26T08:03:55.805Z,100582.91
2022-08-26T08:06:27.403Z,100583.72
2022-08-26T08:08:57.366Z,100580.81
2022-08-26T08:11:27.412Z,100579.53
2022-08-26T08:13:56.896Z,100583.66
2022-08-26T08:16:33.866Z,100583.06
2022-08-26T08:19:02.885Z,100578.78
2022-08-26T08:21:32.079Z,100576.06
2022-08-26T08:24:00.106Z,100580.66
2022-08-26T08:26:28.402Z,100573.41
2022-08-26T08:29:23.034Z,100566.56
2022-08-26T08:31:57.981Z,100562.88
2022-08-26T08:34:28.845Z,100562.13
2022-08-26T08:36:57.624Z,100568.41
2022-08-26T08:39:26.429Z,100567.75
2022-08-26T08:42:13.650Z,100569.84
2022-08-26T08:44:52.231Z,100560.31
2022-08-26T08:47:31.597Z,100559.34
2022-08-26T08:50:25.857Z,100558.63
2022-08-26T08:53:22.813Z,100560.88
2022-08-26T08:56:05.444Z,100560.88
2022-08-26T08:58:45.430Z,100553.56
2022-08-26T09:01:28.369Z,100554.16
2022-08-26T09:04:17.185Z,100551.28
2022-08-26T09:06:49.491Z,100555.22
2022-08-26T09:09:35.581Z,100546.13
2022-08-26T09:12:05.165Z,100551.78
2022-08-26T09:14:32.941Z,100556.25
2022-08-26T09:17:08.801Z,100556.63
2022-08-26T09:19:47.886Z,100554.97
2022-08-26T09:22:48.708Z,100552.78
2022-08-26T09:25:16.752Z,100538.72
2022-08-26T09:27:52.098Z,100539.53
2022-08-26T09:30:35.543Z,100538.03
2022-08-26T09:33:10.837Z,100534.16
2022-08-26T09:35:48.946Z,100542.38
2022-08-26T09:38:26.844Z,100529.47
2022-08-26T09:41:06.855Z,100531.53
2022-08-26T09:43:37.152Z,100529.28
2022-08-26T09:46:18.815Z,100521.94
2022-08-26T09:48:46.695Z,100524.09
2022-08-26T09:51:26.644Z,100512.09
2022-08-26T09:53:58.029Z,100518.81
2022-08-26T09:56:34.945Z,100516.03
2022-08-26T09:59:08.571Z,100521.69
2022-08-26T10:01:44.644Z,100524.44
2022-08-26T10:04:26.740Z,100515.59
2022-08-26T10:06:54.916Z,100525.72
2022-08-26T10:09:26.004Z,100512.44
2022-08-26T10:12:00.441Z,100509.25
2022-08-26T10:14:33.635Z,100514.81
2022-08-26T10:17:09.212Z,100502.41
2022-08-26T10:19:56.626Z,100506.34
2022-08-26T10:22:37.755Z,100504.09
2022-08-26T10:25:09.509Z,100501.84
2022-08-26T10:27:38.348Z,100501.50
2022-08-26T10:30:20.944Z,100497.66
2022-08-26T10:33:01.313Z,100506.06
2022-08-26T10:35:31.047Z,100504.59
2022-08-26T10:38:04.895Z,100500.03
2022-08-26T10:40:55.377Z,100502.78
2022-08-26T10:43:26.585Z,100506.06
2022-08-26T10:46:03.397Z,100502.66
2022-08-26T10:48:53.076Z,100501.22
2022-08-26T10:51:27.325Z,100503.28
2022-08-26T10:54:17.375Z,100492.00
2022-08-26T10:57:14.807Z,100483.41
2022-08-26T11:00:00.256Z,100481.44
2022-08-26T11:02:36.289Z,100483.75
2022-08-26T11:05:13.786Z,100479.16
2022-08-26T11:07:44.193Z,100486.75
2022-08-26T11:10:38.185Z,100475.59
2022-08-26T11:13:07.334Z,100469.44
2022-08-26T11:15:38.318Z,100471.84
2022-08-26T11:18:09.160Z,100471.53
2022-08-26T11:20:41.789Z,100466.53
2022-08-26T11:23:13.175Z,100462.50
2022-08-26T11:25:56.288Z,100461.84
2022-08-26T11:28:49.846Z,100459.41
2022-08-26T11:31:26.764Z,100457.78
2022-08-26T11:33:57.207Z,100461.34
2022-08-26T11:36:37.573Z,100455.78
2022-08-26T11:39:23.525Z,100449.13
2022-08-26T11:42:08.134Z,100454.34
2022-08-26T11:44:39.893Z,100446.88
2022-08-26T11:47:11.412Z,100448.84
2022-08-26T11:49:39.856Z,100456.25
2022-08-26T11:52:09.488Z,100436.22
2022-08-26T11:54:37.760Z,100441.91
2022-08-26T11:57:09.417Z,100435.13
2022-08-26T11:59:42.126Z,100433.84
2022-08-26T12:02:16.611Z,100433.22
2022-08-26T12:04:52.168Z,100436.28
2022-08-26T12:07:25.416Z,100427.72
2022-08-26T12:09:56.712Z,100424.97
2022-08-26T12:12:34.796Z,100421.38
2022-08-26T12:15:20.732Z,100421.38
2022-08-26T12:17:54.383Z,100412.31
2022-08-26T12:20:48.653Z,100412.47
2022-08-26T12:23:36.509Z,100410.72
2022-08-26T12:26:12.463Z,100411.69
2022-08-26T12:29:19.752Z,100400.81
2022-08-26T12:31:48.533Z,100402.31
2022-08-26T12:34:18.439Z,100395.66
2022-08-26T12:36:50.408Z,100399.38
2022-08-26T12:39:38.190Z,100393.22
2022-08-26T12:42:23.609Z,100383.66
2022-08-26T12:45:06.729Z,100390.16
2022-08-26T12:47:43.003Z,100381.41
2022-08-26T12:50:18.667Z,100366.50
2022-08-26T12:53:26.499Z,100379.59
2022-08-26T12:56:05.480Z,100375.59
2022-08-26T12:58:39.164Z,100364.59
2022-08-26T13:01:07.145Z,100367.66
2022-08-26T13:03:34.933Z,100360.53
2022-08-26T13:06:31.631Z,100360.69
2022-08-26T13:09:03.035Z,100354.38
2022-08-26T13:11:41.333Z,100353.91
2022-08-26T13:14:12.177Z,100350.34
2022-08-26T13:16:47.381Z,100349.03
2022-08-26T13:19:35.403Z,100355.34
2022-08-26T13:22:05.536Z,100346.78
2022-08-26T13:24:45.377Z,100350.19
2022-08-26T13:27:15.358Z,100334.13
2022-08-26T13:29:43.570Z,100341.59
2022-08-26T13:32:11.736Z,100344.19
2022-08-26T13:34:39.768Z,100335.00
2022-08-26T13:37:07.948Z,100338.19
2022-08-26T13:39:35.859Z,100335.63
2022-08-26T13:42:04.124Z,100330.44
2022-08-26T13:44:32.165Z,100327.38
2022-08-26T13:47:00.239Z,100326.25
2022-08-26T13:49:31.576Z,100330.44
2022-08-26T13:52:04.071Z,100330.16
2022-08-26T13:54:32.148Z,100325.44
2022-08-26T13:57:00.097Z,100317.34
2022-08-26T13:59:28.316Z,100318.78
2022-08-26T14:01:56.638Z,100317.19
2022-08-26T14:04:27.481Z,100318.16
2022-08-26T14:06:55.908Z,100314.91
2022-08-26T14:09:27.109Z,100316.69
2022-08-26T14:12:01.031Z,100309.88
2022-08-26T14:14:30.531Z,100311.78
2022-08-26T14:17:00.308Z,100306.31
2022-08-26T14:19:32.374Z,100310.13
2022-08-26T14:22:04.491Z,100310.59
2022-08-26T14:24:35.448Z,100311.19
2022-08-26T14:27:05.687Z,100311.28
2022-08-26T14:29:33.690Z,100309.16
2022-08-26T14:32:07.128Z,100311.91
2022-08-26T14:34:35.074Z,100311.09
2022-08-26T14:37:08.192Z,100301.53
2022-08-26T14:39:40.234Z,100307.72
2022-08-26T14:42:18.991Z,100299.69
2022-08-26T14:44:58.576Z,100291.19
2022-08-26T14:47:26.606Z,100292.53
2022-08-26T14:49:58.097Z,100283.66
2022-08-26T14:52:26.841Z,100292.69
2022-08-26T14:55:03.313Z,100282.88
2022-08-26T14:57:31.259Z,100290.84
2022-08-26T15:00:02.903Z,100282.09
2022-08-26T15:02:40.151Z,100290.53
2022-08-26T15:05:08.965Z,100286.78
2022-08-26T15:07:38.425Z,100279.69
2022-08-26T15:10:11.581Z,100290.03
2022-08-26T15:12:44.189Z,100288.25
2022-08-26T15:15:14.194Z,100285.19
2022-08-26T15:17:42.364Z,100277.09
2022-08-26T15:20:13.285Z,100275.28
2022-08-26T15:22:43.385Z,100275.78
2022-08-26T15:25:11.734Z,100277.53
2022-08-26T15:27:40.013Z,100272.19
2022-08-26T15:30:12.023Z,100277.03
2022-08-26T15:32:41.871Z,100274.41
2022-08-26T15:35:10.335Z,100270.88
2022-08-26T15:37:40.698Z,100266.84
2022-08-26T15:40:10.114Z,100266.03
2022-08-26T15:42:38.488Z,100265.53
2022-08-26T15:45:07.026Z,100258.78
2022-08-26T15:47:35.473Z,100262.78
2022-08-26T15:50:23.126Z,100262.47
2022-08-26T15:52:51.375Z,100261.50
2022-08-26T15:55:19.250Z,100256.97
2022-08-26T15:57:50.188Z,100258.75
2022-08-26T16:00:18.479Z,100255.00
2022-08-26T16:02:46.762Z,100261.94
2022-08-26T16:05:14.607Z,100259.03
2022-08-26T16:07:42.398Z,100260.28
2022-08-26T16:10:10.648Z,100254.31
2022-08-26T16:12:38.676Z,100256.25
2022-08-26T16:15:07.115Z,100252.69
2022-08-26T16:17:35.386Z,100257.19
2022-08-26T16:20:05.289Z,100257.69
2022-08-26T16:22:33.279Z,100246.84
2022-08-26T16:25:01.036Z,100243.44
2022-08-26T16:27:29.012Z,100248.41
2022-08-26T16:29:56.899Z,100245.69
2022-08-26T16:32:27.276Z,100254.53
2022-08-26T16:34:58.682Z,100242.75
2022-08-26T16:37:26.711Z,100248.38
2022-08-26T16:39:54.641Z,100249.47
2022-08-26T16:42:22.485Z,100247.69
2022-08-26T16:44:51.960Z,100253.16
2022-08-26T16:47:20.267Z,100247.34
2022-08-26T16:49:48.244Z,100246.34
2022-08-26T16:52:16.176Z,100254.88
2022-08-26T16:54:44.376Z,100258.25
2022-08-26T16:57:13.724Z,100263.25
2022-08-26T16:59:44.847Z,100258.69
2022-08-26T17:02:13.608Z,100253.63
2022-08-26T17:04:46.146Z,100257.81
2022-08-26T17:07:15.869Z,100255.03
2022-08-26T17:09:47.397Z,100260.94
2022-08-26T17:12:15.680Z,100251.38
2022-08-26T17:14:55.486Z,100258.09
2022-08-26T17:17:23.523Z,100262.88
2022-08-26T17:20:01.588Z,100256.00
2022-08-26T17:22:34.459Z,100253.47
2022-08-26T17:25:12.101Z,100256.97
2022-08-26T17:27:41.017Z,100261.84
2022-08-26T17:30:10.020Z,100256.63
2022-08-26T17:32:38.218Z,100256.53
2022-08-26T17:35:07.018Z,100255.03
2022-08-26T17:37:35.055Z,100261.78
2022-08-26T17:40:06.730Z,100256.31
2022-08-26T17:42:34.523Z,100257.63
2022-08-26T17:45:04.506Z,100262.69
2022-08-26T17:47:33.065Z,100261.28
2022-08-26T17:50:01.644Z,100270.44
2022-08-26T17:52:30.745Z,100264.88
2022-08-26T17:54:59.357Z,100266.34
2022-08-26T17:57:27.577Z,100261.28
2022-08-26T17:59:57.574Z,100263.59
2022-08-26T18:02:25.694Z,100259.31
2022-08-26T18:04:53.526Z,100256.38
2022-08-26T18:07:21.272Z,100264.16
2022-08-26T18:09:49.417Z,100265.63
2022-08-26T18:12:19.045Z,100262.13
2022-08-26T18:14:46.830Z,100264.97
2022-08-26T18:17:15.223Z,100263.44
2022-08-26T18:19:47.644Z,100268.44
2022-08-26T18:22:15.826Z,100271.22
2022-08-26T18:24:57.383Z,100269.41
2022-08-26T18:27:40.648Z,100265.13
2022-08-26T18:30:19.327Z,100264.06
2022-08-26T18:32:57.647Z,100266.91
2022-08-26T18:35:33.149Z,100264.22
2022-08-26T18:38:12.423Z,100276.34
2022-08-26T18:40:51.424Z,100270.38
2022-08-26T18:43:27.677Z,100264.69
2022-08-26T18:46:19.289Z,100271.31
2022-08-26T18:49:03.437Z,100276.84
2022-08-26T18:51:34.201Z,100267.94
2022-08-26T18:54:08.168Z,100274.03
2022-08-26T18:56:43.048Z,100275.78
2022-08-26T18:59:16.420Z,100269.84
2022-08-26T19:01:51.610Z,100275.34
2022-08-26T19:04:25.612Z,100274.63
2022-08-26T19:06:54.884Z,100273.53
2022-08-26T19:09:23.578Z,100277.13
2022-08-26T19:11:51.411Z,100273.63
2022-08-26T19:14:21.487Z,100276.94
2022-08-26T19:16:52.501Z,100278.91
2022-08-26T19:19:24.684Z,100279.75
2022-08-26T19:21:53.391Z,100269.72
2022-08-26T19:24:22.347Z,100271.34
2022-08-26T19:26:57.577Z,100271.34
2022-08-26T19:29:33.988Z,100274.09
2022-08-26T19:32:19.077Z,100272.53
2022-08-26T19:35:15.733Z,100264.13
2022-08-26T19:37:52.187Z,100277.78
2022-08-26T19:40:56.324Z,100272.66
2022-08-26T19:43:24.579Z,100276.53
2022-08-26T19:45:52.885Z,100275.72
2022-08-26T19:48:54.114Z,100270.03
2022-08-26T19:51:31.437Z,100279.31
2022-08-26T19:54:01.023Z,100277.41
2022-08-26T19:56:29.378Z,100287.22
2022-08-26T19:58:57.845Z,100285.38
2022-08-26T20:01:26.367Z,100287.84
2022-08-26T20:06:27.258Z,100287.34
2022-08-26T20:08:56.292Z,100289.28
2022-08-26T20:11:24.717Z,100290.69
2022-08-26T20:13:52.405Z,100287.19
2022-08-26T20:16:20.221Z,100293.44
2022-08-26T20:19:09.759Z,100286.38
2022-08-26T20:21:40.248Z,100291.84
2022-08-26T20:24:14.677Z,100287.53
2022-08-26T20:26:45.036Z,100290.25
2022-08-26T20:29:18.405Z,100283.50
2022-08-26T20:31:47.989Z,100288.13
2022-08-26T20:34:18.655Z,100291.69
2022-08-26T20:36:48.266Z,100290.63
2022-08-26T20:39:18.399Z,100288.22
2022-08-26T20:41:46.419Z,100284.97
2022-08-26T20:44:15.897Z,100289.84
2022-08-26T20:46:45.035Z,100300.47
2022-08-26T20:49:19.805Z,100303.50
2022-08-26T20:51:55.342Z,100302.44
2022-08-26T20:54:29.266Z,100302.41
2022-08-26T20:57:00.926Z,100298.88
2022-08-26T20:59:29.407Z,100299.97
2022-08-26T21:02:01.455Z,100300.28
2022-08-26T21:04:31.827Z,100303.00
2022-08-26T21:06:59.894Z,100307.06
2022-08-26T21:09:28.893Z,100296.50
2022-08-26T21:12:00.309Z,100301.63
2022-08-26T21:14:30.356Z,100301.38
2022-08-26T21:17:00.453Z,100300.81
2022-08-26T21:19:30.538Z,100308.16
2022-08-26T21:22:00.775Z,100301.94
2022-08-26T21:24:28.504Z,100305.44
2022-08-26T21:26:56.758Z,100305.72
2022-08-26T21:29:28.621Z,100304.91
2022-08-26T21:31:58.005Z,100304.91
2022-08-26T21:34:25.837Z,100308.97
2022-08-26T21:36:53.879Z,100314.94
2022-08-26T21:39:21.643Z,100310.09
2022-08-26T21:41:49.516Z,100296.50
2022-08-26T21:44:18.260Z,100298.66
2022-08-26T21:46:46.646Z,100300.56
2022-08-26T21:49:18.604Z,100306.84
2022-08-26T21:51:48.628Z,100300.28
2022-08-26T21:54:18.339Z,100297.03
2022-08-26T21:56:50.367Z,100297.03
2022-08-26T21:59:19.807Z,100304.63
2022-08-26T22:01:49.370Z,100300.31
2022-08-26T22:04:18.499Z,100297.28
2022-08-26T22:06:49.410Z,100297.28
2022-08-26T22:09:20.791Z,100300.00
2022-08-26T22:11:49.468Z,100297.84
2022-08-26T22:14:18.744Z,100292.97
2022-08-26T22:16:50.532Z,100297.84
2022-08-26T22:19:23.577Z,100298.66
2022-08-26T22:21:54.688Z,100298.13
2022-08-26T22:24:26.424Z,100303.84
2022-08-26T22:26:55.313Z,100300.00
2022-08-26T22:29:24.555Z,100299.19
2022-08-26T22:31:52.676Z,100300.00
2022-08-26T22:34:23.348Z,100295.41
2022-08-26T22:36:51.291Z,100293.47
2022-08-26T22:39:23.283Z,100296.44
2022-08-26T22:41:52.625Z,100297.50
2022-08-26T22:44:22.446Z,100299.44
2022-08-26T22:46:54.408Z,100299.16
2022-08-26T22:49:22.978Z,100296.16
2022-08-26T22:51:51.385Z,100289.94
2022-08-26T22:54:19.562Z,100299.13
2022-08-26T22:56:47.443Z,100291.00
2022-08-26T22:59:16.487Z,100293.41
2022-08-26T23:01:44.968Z,100291.78
2022-08-26T23:04:13.586Z,100289.38
2022-08-26T23:06:47.835Z,100285.53
2022-08-26T23:09:19.494Z,100282.00
2022-08-26T23:11:48.628Z,100286.59
2022-08-26T23:14:18.390Z,100282.81
2022-08-26T23:16:47.550Z,100283.34
2022-08-26T23:19:18.041Z,100280.06
2022-08-26T23:21:46.297Z,100286.03
2022-08-26T23:24:14.673Z,100273.25
2022-08-26T23:26:43.530Z,100276.78
2022-08-26T23:29:13.520Z,100281.94
2022-08-26T23:31:43.189Z,100274.59
2022-08-26T23:34:30.598Z,100279.16
2022-08-26T23:37:00.231Z,100272.88
2022-08-26T23:39:31.219Z,100264.75
2022-08-26T23:42:01.913Z,100265.03
2022-08-26T23:44:30.882Z,100263.38
2022-08-26T23:46:59.175Z,100263.66
2022-08-26T23:49:27.619Z,100256.06
2022-08-26T23:52:14.236Z,100265.53
2022-08-26T23:54:42.558Z,100260.34
2022-08-26T23:57:13.291Z,100259.53
2022-08-26T23:59:42.356Z,100258.41
